sensor_id;sensor_type;location;lat;lon;timestamp;pressure;altitude;pressure_sealevel;temperature;humidity
72409;BME280;60402;48.082;11.628;2023-04-10T00:01:20;95967.25;;;0.84;100.00
72409;BME280;60402;48.082;11.628;2023-04-10T00:04:05;95954.28;;;0.69;100.00
72409;BME280;60402;48.082;11.628;2023-04-10T00:06:51;95989.34;;;0.96;100.00
72409;BME280;60402;48.082;11.628;2023-04-10T00:09:37;96010.69;;;1.12;100.00
72409;BME280;60402;48.082;11.628;2023-04-10T00:12:23;95980.69;;;1.01;100.00
72409;BME280;60402;48.082;11.628;2023-04-10T00:15:09;95993.25;;;1.15;100.00
72409;BME280;60402;48.082;11.628;2023-04-10T00:17:55;95991.44;;;1.03;100.00
72409;BME280;60402;48.082;11.628;2023-04-10T00:20:41;95963.91;;;0.75;100.00
72409;BME280;60402;48.082;11.628;2023-04-10T00:23:28;95994.53;;;0.98;100.00
72409;BME280;60402;48.082;11.628;2023-04-10T00:26:16;95957.38;;;0.87;100.00
72409;BME280;60402;48.082;11.628;2023-04-10T00:29:02;95954.59;;;0.87;100.00
72409;BME280;60402;48.082;11.628;2023-04-10T00:31:48;95969.56;;;1.01;100.00
72409;BME280;60402;48.082;11.628;2023-04-10T00:34:34;95961.97;;;0.75;100.00
72409;BME280;60402;48.082;11.628;2023-04-10T00:37:19;95991.66;;;0.91;100.00
72409;BME280;60402;48.082;11.628;2023-04-10T00:40:06;95993.94;;;0.85;100.00
72409;BME280;60402;48.082;11.628;2023-04-10T00:42:52;95998.47;;;0.74;100.00
72409;BME280;60402;48.082;11.628;2023-04-10T00:45:38;95946.34;;;0.48;100.00
72409;BME280;60402;48.082;11.628;2023-04-10T00:48:24;95982.81;;;0.66;100.00
72409;BME280;60402;48.082;11.628;2023-04-10T00:51:10;95960.25;;;0.48;100.00
72409;BME280;60402;48.082;11.628;2023-04-10T00:53:56;95980.78;;;0.63;100.00
72409;BME280;60402;48.082;11.628;2023-04-10T00:56:42;95942.31;;;0.45;100.00
72409;BME280;60402;48.082;11.628;2023-04-10T00:59:29;95960.50;;;0.62;100.00
72409;BME280;60402;48.082;11.628;2023-04-10T01:02:15;95955.19;;;0.54;100.00
72409;BME280;60402;48.082;11.628;2023-04-10T01:05:01;95945.81;;;0.42;100.00
72409;BME280;60402;48.082;11.628;2023-04-10T01:07:59;95933.69;;;0.31;100.00
72409;BME280;60402;48.082;11.628;2023-04-10T01:11:00;95970.03;;;0.61;100.00
72409;BME280;60402;48.082;11.628;2023-04-10T01:13:50;95970.31;;;0.56;100.00
72409;BME280;60402;48.082;11.628;2023-04-10T01:17:03;95961.69;;;0.42;100.00
72409;BME280;60402;48.082;11.628;2023-04-10T01:20:04;95979.72;;;0.48;100.00
72409;BME280;60402;48.082;11.628;2023-04-10T01:25:55;95981.81;;;0.35;100.00
72409;BME280;60402;48.082;11.628;2023-04-10T01:31:47;95973.56;;;0.19;100.00
72409;BME280;60402;48.082;11.628;2023-04-10T01:34:44;95976.84;;;0.25;100.00
72409;BME280;60402;48.082;11.628;2023-04-10T01:37:31;95927.06;;;-0.03;100.00
72409;BME280;60402;48.082;11.628;2023-04-10T01:40:20;95962.88;;;0.21;100.00
72409;BME280;60402;48.082;11.628;2023-04-10T01:43:08;95914.69;;;-0.06;100.00
72409;BME280;60402;48.082;11.628;2023-04-10T01:45:55;95908.13;;;-0.17;100.00
72409;BME280;60402;48.082;11.628;2023-04-10T01:48:44;95959.31;;;0.21;100.00
72409;BME280;60402;48.082;11.628;2023-04-10T01:51:31;95962.09;;;0.21;100.00
72409;BME280;60402;48.082;11.628;2023-04-10T01:54:17;95959.38;;;0.24;100.00
72409;BME280;60402;48.082;11.628;2023-04-10T01:57:04;95958.59;;;0.24;100.00
72409;BME280;60402;48.082;11.628;2023-04-10T01:59:50;95953.03;;;0.24;100.00
72409;BME280;60402;48.082;11.628;2023-04-10T02:02:36;95952.56;;;0.22;100.00
72409;BME280;60402;48.082;11.628;2023-04-10T02:05:23;95930.13;;;0.11;100.00
72409;BME280;60402;48.082;11.628;2023-04-10T02:11:13;95944.38;;;0.29;100.00
72409;BME280;60402;48.082;11.628;2023-04-10T02:14:03;95916.59;;;0.10;100.00
72409;BME280;60402;48.082;11.628;2023-04-10T02:16:52;95928.81;;;0.24;100.00
72409;BME280;60402;48.082;11.628;2023-04-10T02:19:38;95918.84;;;0.23;100.00
72409;BME280;60402;48.082;11.628;2023-04-10T02:22:26;95911.97;;;0.17;100.00
72409;BME280;60402;48.082;11.628;2023-04-10T02:25:12;95958.56;;;0.43;100.00
72409;BME280;60402;48.082;11.628;2023-04-10T02:28:03;95925.53;;;0.19;100.00
72409;BME280;60402;48.082;11.628;2023-04-10T02:30:49;95932.69;;;0.20;100.00
72409;BME280;60402;48.082;11.628;2023-04-10T02:33:35;95947.81;;;0.22;100.00
72409;BME280;60402;48.082;11.628;2023-04-10T02:36:21;95952.56;;;0.22;100.00
72409;BME280;60402;48.082;11.628;2023-04-10T02:39:07;95909.00;;;-0.13;100.00
72409;BME280;60402;48.082;11.628;2023-04-10T02:41:53;95839.59;;;-0.48;100.00
72409;BME280;60402;48.082;11.628;2023-04-10T02:44:38;95898.69;;;-0.12;100.00
72409;BME280;60402;48.082;11.628;2023-04-10T02:47:24;95926.97;;;-0.07;100.00
72409;BME280;60402;48.082;11.628;2023-04-10T02:50:10;95900.28;;;-0.11;100.00
72409;BME280;60402;48.082;11.628;2023-04-10T02:52:56;95955.81;;;0.24;100.00
72409;BME280;60402;48.082;11.628;2023-04-10T02:55:42;95891.81;;;-0.18;100.00
72409;BME280;60402;48.082;11.628;2023-04-10T02:58:27;95918.63;;;-0.07;100.00
72409;BME280;60402;48.082;11.628;2023-04-10T03:01:15;95885.66;;;-0.47;100.00
72409;BME280;60402;48.082;11.628;2023-04-10T03:04:00;95920.00;;;-0.36;100.00
72409;BME280;60402;48.082;11.628;2023-04-10T03:06:48;95911.91;;;-0.25;100.00
72409;BME280;60402;48.082;11.628;2023-04-10T03:09:33;95892.22;;;-0.55;100.00
72409;BME280;60402;48.082;11.628;2023-04-10T03:12:19;95911.31;;;-0.34;100.00
72409;BME280;60402;48.082;11.628;2023-04-10T03:15:05;95919.81;;;-0.27;100.00
72409;BME280;60402;48.082;11.628;2023-04-10T03:17:51;95911.38;;;-0.50;100.00
72409;BME280;60402;48.082;11.628;2023-04-10T03:20:37;95913.34;;;-0.66;100.00
72409;BME280;60402;48.082;11.628;2023-04-10T03:23:23;95890.22;;;-0.90;100.00
72409;BME280;60402;48.082;11.628;2023-04-10T03:26:08;95898.97;;;-0.72;100.00
72409;BME280;60402;48.082;11.628;2023-04-10T03:28:54;95909.97;;;-0.60;100.00
72409;BME280;60402;48.082;11.628;2023-04-10T03:31:40;95885.88;;;-0.71;100.00
72409;BME280;60402;48.082;11.628;2023-04-10T03:34:26;95944.22;;;-0.52;100.00
72409;BME280;60402;48.082;11.628;2023-04-10T03:37:12;95897.75;;;-0.90;100.00
72409;BME280;60402;48.082;11.628;2023-04-10T03:39:57;95940.81;;;-0.61;100.00
72409;BME280;60402;48.082;11.628;2023-04-10T03:42:43;95939.97;;;-0.65;100.00
72409;BME280;60402;48.082;11.628;2023-04-10T03:45:29;95934.59;;;-0.74;100.00
72409;BME280;60402;48.082;11.628;2023-04-10T03:48:14;95939.88;;;-0.69;100.00
72409;BME280;60402;48.082;11.628;2023-04-10T03:51:01;95939.34;;;-0.74;100.00
72409;BME280;60402;48.082;11.628;2023-04-10T03:53:46;95910.72;;;-0.94;100.00
72409;BME280;60402;48.082;11.628;2023-04-10T03:56:32;95945.25;;;-0.76;100.00
72409;BME280;60402;48.082;11.628;2023-04-10T03:59:18;95955.53;;;-0.61;100.00
72409;BME280;60402;48.082;11.628;2023-04-10T04:02:04;95898.47;;;-0.93;100.00
72409;BME280;60402;48.082;11.628;2023-04-10T04:04:51;95920.56;;;-0.81;100.00
72409;BME280;60402;48.082;11.628;2023-04-10T04:07:37;95954.72;;;-0.61;100.00
72409;BME280;60402;48.082;11.628;2023-04-10T04:10:23;95962.78;;;-0.56;100.00
72409;BME280;60402;48.082;11.628;2023-04-10T04:13:08;95932.44;;;-0.81;100.00
72409;BME280;60402;48.082;11.628;2023-04-10T04:15:54;95912.44;;;-1.06;100.00
72409;BME280;60402;48.082;11.628;2023-04-10T04:18:40;95932.75;;;-1.01;100.00
72409;BME280;60402;48.082;11.628;2023-04-10T04:21:26;95917.81;;;-1.13;100.00
72409;BME280;60402;48.082;11.628;2023-04-10T04:24:12;95936.06;;;-0.96;100.00
72409;BME280;60402;48.082;11.628;2023-04-10T04:26:57;95929.50;;;-1.04;100.00
72409;BME280;60402;48.082;11.628;2023-04-10T04:29:43;95945.78;;;-0.86;100.00
72409;BME280;60402;48.082;11.628;2023-04-10T04:32:28;95934.72;;;-1.02;100.00
72409;BME280;60402;48.082;11.628;2023-04-10T04:35:14;95937.66;;;-1.11;100.00
72409;BME280;60402;48.082;11.628;2023-04-10T04:38:00;95919.97;;;-1.22;100.00
72409;BME280;60402;48.082;11.628;2023-04-10T04:40:46;95925.31;;;-1.13;100.00
72409;BME280;60402;48.082;11.628;2023-04-10T04:43:31;95954.75;;;-0.93;100.00
72409;BME280;60402;48.082;11.628;2023-04-10T04:46:17;95959.94;;;-0.91;100.00
72409;BME280;60402;48.082;11.628;2023-04-10T04:49:03;95940.38;;;-0.98;100.00
72409;BME280;60402;48.082;11.628;2023-04-10T04:51:49;95967.72;;;-0.81;100.00
72409;BME280;60402;48.082;11.628;2023-04-10T04:54:34;95973.38;;;-0.78;100.00
72409;BME280;60402;48.082;11.628;2023-04-10T04:57:20;95942.88;;;-0.93;100.00
72409;BME280;60402;48.082;11.628;2023-04-10T05:00:06;95967.72;;;-0.65;100.00
72409;BME280;60402;48.082;11.628;2023-04-10T05:02:52;95941.75;;;-0.73;100.00
72409;BME280;60402;48.082;11.628;2023-04-10T05:05:37;95971.31;;;-0.65;100.00
72409;BME280;60402;48.082;11.628;2023-04-10T05:08:23;95962.16;;;-0.65;100.00
72409;BME280;60402;48.082;11.628;2023-04-10T05:11:09;95963.50;;;-0.59;100.00
72409;BME280;60402;48.082;11.628;2023-04-10T05:13:55;95949.81;;;-0.68;100.00
72409;BME280;60402;48.082;11.628;2023-04-10T05:16:41;95968.50;;;-0.49;100.00
72409;BME280;60402;48.082;11.628;2023-04-10T05:19:26;95967.69;;;-0.49;100.00
72409;BME280;60402;48.082;11.628;2023-04-10T05:22:12;95957.75;;;-0.50;100.00
72409;BME280;60402;48.082;11.628;2023-04-10T05:24:58;95851.25;;;-1.13;100.00
72409;BME280;60402;48.082;11.628;2023-04-10T05:27:43;95903.72;;;-0.72;100.00
72409;BME280;60402;48.082;11.628;2023-04-10T05:30:32;95945.19;;;-0.44;100.00
72409;BME280;60402;48.082;11.628;2023-04-10T05:33:17;95967.00;;;-0.27;100.00
72409;BME280;60402;48.082;11.628;2023-04-10T05:36:03;95947.84;;;-0.32;100.00
72409;BME280;60402;48.082;11.628;2023-04-10T05:38:49;95952.75;;;-0.26;100.00
72409;BME280;60402;48.082;11.628;2023-04-10T05:41:35;95959.94;;;-0.05;100.00
72409;BME280;60402;48.082;11.628;2023-04-10T05:44:21;95958.63;;;0.08;100.00
72409;BME280;60402;48.082;11.628;2023-04-10T05:47:06;95963.69;;;0.22;100.00
72409;BME280;60402;48.082;11.628;2023-04-10T05:49:52;95975.53;;;0.38;100.00
72409;BME280;60402;48.082;11.628;2023-04-10T05:52:38;95934.97;;;0.14;100.00
72409;BME280;60402;48.082;11.628;2023-04-10T05:55:23;95946.41;;;0.32;100.00
72409;BME280;60402;48.082;11.628;2023-04-10T05:58:10;95964.75;;;0.56;100.00
72409;BME280;60402;48.082;11.628;2023-04-10T06:00:56;95990.63;;;0.80;100.00
72409;BME280;60402;48.082;11.628;2023-04-10T06:03:42;95979.41;;;0.95;100.00
72409;BME280;60402;48.082;11.628;2023-04-10T06:06:28;95959.44;;;0.90;100.00
72409;BME280;60402;48.082;11.628;2023-04-10T06:09:14;95982.22;;;1.22;100.00
72409;BME280;60402;48.082;11.628;2023-04-10T06:12:00;95984.47;;;1.36;100.00
72409;BME280;60402;48.082;11.628;2023-04-10T06:14:46;95961.50;;;1.42;100.00
72409;BME280;60402;48.082;11.628;2023-04-10T06:17:32;95987.72;;;1.91;100.00
72409;BME280;60402;48.082;11.628;2023-04-10T06:20:17;95996.47;;;2.83;100.00
72409;BME280;60402;48.082;11.628;2023-04-10T06:23:03;95975.34;;;4.33;96.23
72409;BME280;60402;48.082;11.628;2023-04-10T06:25:50;95984.00;;;5.11;92.10
72409;BME280;60402;48.082;11.628;2023-04-10T06:28:36;95969.59;;;5.17;91.65
72409;BME280;60402;48.082;11.628;2023-04-10T06:31:23;95955.50;;;6.56;86.41
72409;BME280;60402;48.082;11.628;2023-04-10T06:34:08;95980.47;;;7.79;80.30
72409;BME280;60402;48.082;11.628;2023-04-10T06:36:54;95978.31;;;6.69;84.02
72409;BME280;60402;48.082;11.628;2023-04-10T06:39:40;95977.53;;;6.68;85.30
72409;BME280;60402;48.082;11.628;2023-04-10T06:42:26;95942.81;;;5.41;88.66
72409;BME280;60402;48.082;11.628;2023-04-10T06:45:11;95961.63;;;5.33;90.53
72409;BME280;60402;48.082;11.628;2023-04-10T06:47:57;95952.81;;;5.77;90.84
72409;BME280;60402;48.082;11.628;2023-04-10T06:50:43;95966.06;;;5.55;91.86
72409;BME280;60402;48.082;11.628;2023-04-10T06:53:28;95971.25;;;5.68;90.62
72409;BME280;60402;48.082;11.628;2023-04-10T06:56:14;95964.84;;;5.63;91.05
72409;BME280;60402;48.082;11.628;2023-04-10T06:59:00;95962.84;;;5.89;91.26
72409;BME280;60402;48.082;11.628;2023-04-10T07:01:46;95962.47;;;5.83;90.65
72409;BME280;60402;48.082;11.628;2023-04-10T07:04:31;95961.59;;;6.33;86.39
72409;BME280;60402;48.082;11.628;2023-04-10T07:07:17;95960.63;;;6.75;85.15
72409;BME280;60402;48.082;11.628;2023-04-10T07:10:04;95949.31;;;6.97;83.22
72409;BME280;60402;48.082;11.628;2023-04-10T07:12:50;95962.91;;;7.61;83.25
72409;BME280;60402;48.082;11.628;2023-04-10T07:15:36;95925.84;;;7.77;80.60
72409;BME280;60402;48.082;11.628;2023-04-10T07:18:21;95930.00;;;9.86;74.22
72409;BME280;60402;48.082;11.628;2023-04-10T07:21:10;95916.06;;;10.46;64.77
72409;BME280;60402;48.082;11.628;2023-04-10T07:23:59;95953.88;;;10.52;62.46
72409;BME280;60402;48.082;11.628;2023-04-10T07:26:45;95928.53;;;13.68;54.40
72409;BME280;60402;48.082;11.628;2023-04-10T07:29:30;95955.25;;;14.56;50.93
72409;BME280;60402;48.082;11.628;2023-04-10T07:32:16;95956.94;;;15.76;45.78
72409;BME280;60402;48.082;11.628;2023-04-10T07:35:02;95940.19;;;14.21;47.72
72409;BME280;60402;48.082;11.628;2023-04-10T07:37:47;95962.53;;;15.36;44.30
72409;BME280;60402;48.082;11.628;2023-04-10T07:40:36;95964.28;;;14.54;45.00
72409;BME280;60402;48.082;11.628;2023-04-10T07:43:22;95961.09;;;13.38;46.53
72409;BME280;60402;48.082;11.628;2023-04-10T07:46:07;95945.56;;;12.10;50.10
72409;BME280;60402;48.082;11.628;2023-04-10T07:48:53;95960.91;;;13.96;46.16
72409;BME280;60402;48.082;11.628;2023-04-10T07:51:39;95958.22;;;14.52;45.91
72409;BME280;60402;48.082;11.628;2023-04-10T07:54:25;95954.84;;;14.19;44.95
72409;BME280;60402;48.082;11.628;2023-04-10T07:57:11;95955.88;;;17.27;39.88
72409;BME280;60402;48.082;11.628;2023-04-10T07:59:56;95963.72;;;18.21;38.01
72409;BME280;60402;48.082;11.628;2023-04-10T08:02:42;95950.19;;;19.41;34.04
72409;BME280;60402;48.082;11.628;2023-04-10T08:05:28;95961.41;;;16.85;39.12
72409;BME280;60402;48.082;11.628;2023-04-10T08:08:15;95969.34;;;16.99;38.80
72409;BME280;60402;48.082;11.628;2023-04-10T08:11:01;95958.00;;;16.59;38.80
72409;BME280;60402;48.082;11.628;2023-04-10T08:13:47;95960.44;;;16.79;39.04
72409;BME280;60402;48.082;11.628;2023-04-10T08:16:34;95946.69;;;13.45;44.11
72409;BME280;60402;48.082;11.628;2023-04-10T08:19:20;95942.59;;;14.70;42.19
72409;BME280;60402;48.082;11.628;2023-04-10T08:22:06;95968.38;;;14.15;44.06
72409;BME280;60402;48.082;11.628;2023-04-10T08:24:51;95954.09;;;13.68;45.09
72409;BME280;60402;48.082;11.628;2023-04-10T08:27:37;95927.72;;;18.38;37.17
72409;BME280;60402;48.082;11.628;2023-04-10T08:30:22;95936.25;;;20.08;35.18
72409;BME280;60402;48.082;11.628;2023-04-10T08:33:08;95942.22;;;17.31;37.09
72409;BME280;60402;48.082;11.628;2023-04-10T08:35:54;95958.75;;;19.80;33.75
72409;BME280;60402;48.082;11.628;2023-04-10T08:38:40;95955.06;;;17.27;36.43
72409;BME280;60402;48.082;11.628;2023-04-10T08:41:26;95954.91;;;16.94;37.13
72409;BME280;60402;48.082;11.628;2023-04-10T08:44:12;95927.69;;;18.71;34.68
72409;BME280;60402;48.082;11.628;2023-04-10T08:46:58;95951.28;;;15.10;39.98
72409;BME280;60402;48.082;11.628;2023-04-10T08:49:52;95953.09;;;18.21;36.25
72409;BME280;60402;48.082;11.628;2023-04-10T08:52:42;95916.81;;;17.33;36.84
72409;BME280;60402;48.082;11.628;2023-04-10T08:55:28;95935.72;;;17.13;37.05
72409;BME280;60402;48.082;11.628;2023-04-10T08:58:14;95944.75;;;17.29;37.34
72409;BME280;60402;48.082;11.628;2023-04-10T09:01:00;95949.31;;;17.45;37.12
72409;BME280;60402;48.082;11.628;2023-04-10T09:03:47;95953.16;;;16.96;37.99
72409;BME280;60402;48.082;11.628;2023-04-10T09:06:33;95928.63;;;14.63;40.58
72409;BME280;60402;48.082;11.628;2023-04-10T09:09:18;95924.56;;;15.29;40.29
72409;BME280;60402;48.082;11.628;2023-04-10T09:12:04;95945.34;;;15.70;39.32
72409;BME280;60402;48.082;11.628;2023-04-10T09:14:51;95955.78;;;14.03;41.65
72409;BME280;60402;48.082;11.628;2023-04-10T09:17:37;95926.97;;;12.70;44.53
72409;BME280;60402;48.082;11.628;2023-04-10T09:20:24;95944.38;;;12.40;45.12
72409;BME280;60402;48.082;11.628;2023-04-10T09:23:20;95942.19;;;13.18;44.43
72409;BME280;60402;48.082;11.628;2023-04-10T09:26:31;95943.78;;;11.83;46.45
72409;BME280;60402;48.082;11.628;2023-04-10T09:29:18;95928.84;;;12.90;46.50
72409;BME280;60402;48.082;11.628;2023-04-10T09:32:03;95932.63;;;13.12;46.18
72409;BME280;60402;48.082;11.628;2023-04-10T09:34:54;95929.88;;;12.67;44.73
72409;BME280;60402;48.082;11.628;2023-04-10T09:37:43;95919.34;;;13.51;44.24
72409;BME280;60402;48.082;11.628;2023-04-10T09:40:29;95888.47;;;12.57;45.40
72409;BME280;60402;48.082;11.628;2023-04-10T09:43:20;95924.31;;;12.01;46.44
72409;BME280;60402;48.082;11.628;2023-04-10T09:46:06;95912.91;;;12.50;45.75
72409;BME280;60402;48.082;11.628;2023-04-10T09:48:55;95879.72;;;11.73;46.93
72409;BME280;60402;48.082;11.628;2023-04-10T09:51:41;95870.59;;;12.14;46.05
72409;BME280;60402;48.082;11.628;2023-04-10T09:54:36;95871.94;;;11.77;46.64
72409;BME280;60402;48.082;11.628;2023-04-10T09:57:24;95864.53;;;11.14;47.25
72409;BME280;60402;48.082;11.628;2023-04-10T10:00:11;95868.50;;;11.86;46.28
72409;BME280;60402;48.082;11.628;2023-04-10T10:02:59;95875.91;;;11.63;46.20
72409;BME280;60402;48.082;11.628;2023-04-10T10:05:50;95879.25;;;11.42;47.79
72409;BME280;60402;48.082;11.628;2023-04-10T10:08:36;95871.56;;;12.08;47.51
72409;BME280;60402;48.082;11.628;2023-04-10T10:11:22;95871.19;;;12.22;45.54
72409;BME280;60402;48.082;11.628;2023-04-10T10:14:14;95860.66;;;11.57;47.30
72409;BME280;60402;48.082;11.628;2023-04-10T10:17:04;95866.81;;;11.88;46.63
72409;BME280;60402;48.082;11.628;2023-04-10T10:20:03;95859.44;;;12.07;46.91
72409;BME280;60402;48.082;11.628;2023-04-10T10:22:50;95871.13;;;11.60;47.74
72409;BME280;60402;48.082;11.628;2023-04-10T10:25:37;95825.91;;;11.73;46.88
72409;BME280;60402;48.082;11.628;2023-04-10T10:28:24;95857.41;;;12.08;45.90
72409;BME280;60402;48.082;11.628;2023-04-10T10:31:12;95854.56;;;12.08;45.79
72409;BME280;60402;48.082;11.628;2023-04-10T10:34:00;95840.88;;;11.73;46.89
72409;BME280;60402;48.082;11.628;2023-04-10T10:36:53;95819.72;;;11.94;46.14
72409;BME280;60402;48.082;11.628;2023-04-10T10:39:59;95844.72;;;12.28;44.17
72409;BME280;60402;48.082;11.628;2023-04-10T10:43:03;95809.59;;;12.10;43.53
72409;BME280;60402;48.082;11.628;2023-04-10T10:46:02;95800.19;;;11.67;45.31
72409;BME280;60402;48.082;11.628;2023-04-10T10:48:57;95829.53;;;11.57;43.05
72409;BME280;60402;48.082;11.628;2023-04-10T10:51:44;95822.19;;;11.76;44.21
72409;BME280;60402;48.082;11.628;2023-04-10T10:54:32;95792.38;;;11.71;41.50
72409;BME280;60402;48.082;11.628;2023-04-10T10:57:44;95811.91;;;11.98;42.03
72409;BME280;60402;48.082;11.628;2023-04-10T11:03:34;95777.97;;;12.40;41.77
72409;BME280;60402;48.082;11.628;2023-04-10T11:06:21;95814.66;;;12.02;39.56
72409;BME280;60402;48.082;11.628;2023-04-10T11:12:28;95771.03;;;11.99;43.84
72409;BME280;60402;48.082;11.628;2023-04-10T11:15:21;95779.88;;;12.01;40.62
72409;BME280;60402;48.082;11.628;2023-04-10T11:18:07;95753.06;;;11.44;40.08
72409;BME280;60402;48.082;11.628;2023-04-10T11:26:40;95739.13;;;11.83;43.06
72409;BME280;60402;48.082;11.628;2023-04-10T11:32:12;95773.84;;;11.99;42.82
72409;BME280;60402;48.082;11.628;2023-04-10T11:34:58;95773.75;;;12.32;42.88
72409;BME280;60402;48.082;11.628;2023-04-10T11:37:44;95762.69;;;12.50;42.31
72409;BME280;60402;48.082;11.628;2023-04-10T11:40:29;95740.75;;;12.25;42.90
72409;BME280;60402;48.082;11.628;2023-04-10T11:43:15;95739.56;;;12.52;41.83
72409;BME280;60402;48.082;11.628;2023-04-10T11:46:04;95730.44;;;12.19;42.04
72409;BME280;60402;48.082;11.628;2023-04-10T11:49:01;95739.31;;;12.46;41.94
72409;BME280;60402;48.082;11.628;2023-04-10T11:51:49;95742.63;;;12.58;41.33
72409;BME280;60402;48.082;11.628;2023-04-10T11:54:35;95705.19;;;12.50;37.99
72409;BME280;60402;48.082;11.628;2023-04-10T11:57:22;95716.75;;;12.56;41.11
72409;BME280;60402;48.082;11.628;2023-04-10T12:00:08;95740.66;;;12.29;41.58
72409;BME280;60402;48.082;11.628;2023-04-10T12:02:53;95714.16;;;12.48;40.77
72409;BME280;60402;48.082;11.628;2023-04-10T12:05:46;95727.97;;;12.46;41.65
72409;BME280;60402;48.082;11.628;2023-04-10T12:08:37;95723.78;;;12.38;43.18
72409;BME280;60402;48.082;11.628;2023-04-10T12:11:24;95738.94;;;12.32;42.10
72409;BME280;60402;48.082;11.628;2023-04-10T12:14:10;95728.16;;;11.85;43.29
72409;BME280;60402;48.082;11.628;2023-04-10T12:16:56;95728.03;;;12.17;43.06
72409;BME280;60402;48.082;11.628;2023-04-10T12:19:41;95716.09;;;12.51;43.43
72409;BME280;60402;48.082;11.628;2023-04-10T12:22:27;95733.78;;;12.68;43.26
72409;BME280;60402;48.082;11.628;2023-04-10T12:25:13;95727.00;;;12.91;43.39
72409;BME280;60402;48.082;11.628;2023-04-10T12:27:59;95729.47;;;13.02;41.34
72409;BME280;60402;48.082;11.628;2023-04-10T12:30:48;95700.22;;;12.92;41.08
72409;BME280;60402;48.082;11.628;2023-04-10T12:33:38;95728.94;;;12.94;41.73
72409;BME280;60402;48.082;11.628;2023-04-10T12:36:28;95729.66;;;12.31;41.66
72409;BME280;60402;48.082;11.628;2023-04-10T12:39:21;95723.72;;;12.67;41.37
72409;BME280;60402;48.082;11.628;2023-04-10T12:42:16;95715.41;;;12.60;42.93
72409;BME280;60402;48.082;11.628;2023-04-10T12:45:03;95694.66;;;12.63;42.06
72409;BME280;60402;48.082;11.628;2023-04-10T12:47:50;95708.19;;;12.85;41.23
72409;BME280;60402;48.082;11.628;2023-04-10T12:50:45;95668.94;;;12.58;41.74
72409;BME280;60402;48.082;11.628;2023-04-10T12:53:44;95679.94;;;12.81;42.48
72409;BME280;60402;48.082;11.628;2023-04-10T12:56:42;95674.59;;;12.83;42.53
72409;BME280;60402;48.082;11.628;2023-04-10T12:59:29;95696.94;;;12.81;41.41
72409;BME280;60402;48.082;11.628;2023-04-10T13:02:15;95702.50;;;12.85;42.46
72409;BME280;60402;48.082;11.628;2023-04-10T13:05:03;95696.59;;;13.04;42.20
72409;BME280;60402;48.082;11.628;2023-04-10T13:07:49;95683.78;;;13.00;41.04
72409;BME280;60402;48.082;11.628;2023-04-10T13:10:37;95672.66;;;12.93;42.22
72409;BME280;60402;48.082;11.628;2023-04-10T13:13:22;95681.94;;;13.06;42.30
72409;BME280;60402;48.082;11.628;2023-04-10T13:16:08;95647.16;;;12.80;42.73
72409;BME280;60402;48.082;11.628;2023-04-10T13:18:57;95680.00;;;13.28;40.35
72409;BME280;60402;48.082;11.628;2023-04-10T13:21:43;95651.72;;;13.12;39.99
72409;BME280;60402;48.082;11.628;2023-04-10T13:24:29;95626.84;;;12.82;40.58
72409;BME280;60402;48.082;11.628;2023-04-10T13:27:15;95636.72;;;12.77;40.10
72409;BME280;60402;48.082;11.628;2023-04-10T13:30:00;95640.94;;;12.47;41.84
72409;BME280;60402;48.082;11.628;2023-04-10T13:32:46;95658.94;;;12.91;43.57
72409;BME280;60402;48.082;11.628;2023-04-10T13:35:32;95654.13;;;13.26;42.22
72409;BME280;60402;48.082;11.628;2023-04-10T13:38:17;95635.53;;;13.13;42.35
72409;BME280;60402;48.082;11.628;2023-04-10T13:41:03;95604.84;;;13.20;41.74
72409;BME280;60402;48.082;11.628;2023-04-10T13:43:49;95598.38;;;13.33;41.94
72409;BME280;60402;48.082;11.628;2023-04-10T13:46:35;95625.50;;;13.34;41.58
72409;BME280;60402;48.082;11.628;2023-04-10T13:49:20;95615.69;;;13.47;41.37
72409;BME280;60402;48.082;11.628;2023-04-10T13:52:06;95634.19;;;13.52;39.63
72409;BME280;60402;48.082;11.628;2023-04-10T13:54:52;95627.25;;;13.53;40.49
72409;BME280;60402;48.082;11.628;2023-04-10T13:57:37;95600.66;;;13.12;39.84
72409;BME280;60402;48.082;11.628;2023-04-10T14:00:23;95602.03;;;13.55;41.96
72409;BME280;60402;48.082;11.628;2023-04-10T14:03:09;95603.63;;;13.56;40.67
72409;BME280;60402;48.082;11.628;2023-04-10T14:05:56;95596.06;;;13.62;40.79
72409;BME280;60402;48.082;11.628;2023-04-10T14:08:42;95586.25;;;13.76;41.40
72409;BME280;60402;48.082;11.628;2023-04-10T14:11:28;95611.31;;;13.77;40.73
72409;BME280;60402;48.082;11.628;2023-04-10T14:14:13;95585.44;;;13.19;39.97
72409;BME280;60402;48.082;11.628;2023-04-10T14:16:59;95607.41;;;13.40;39.82
72409;BME280;60402;48.082;11.628;2023-04-10T14:19:45;95594.34;;;13.43;38.99
72409;BME280;60402;48.082;11.628;2023-04-10T14:22:36;95603.59;;;13.34;39.79
72409;BME280;60402;48.082;11.628;2023-04-10T14:25:22;95593.75;;;13.48;40.62
72409;BME280;60402;48.082;11.628;2023-04-10T14:28:09;95587.19;;;13.51;41.28
72409;BME280;60402;48.082;11.628;2023-04-10T14:31:03;95584.53;;;13.22;39.95
72409;BME280;60402;48.082;11.628;2023-04-10T14:33:49;95548.41;;;13.35;40.95
72409;BME280;60402;48.082;11.628;2023-04-10T14:36:34;95582.53;;;13.66;40.33
72409;BME280;60402;48.082;11.628;2023-04-10T14:39:23;95574.56;;;13.74;40.71
72409;BME280;60402;48.082;11.628;2023-04-10T14:42:09;95567.94;;;13.77;40.45
72409;BME280;60402;48.082;11.628;2023-04-10T14:44:55;95558.09;;;13.91;40.16
72409;BME280;60402;48.082;11.628;2023-04-10T14:47:43;95568.47;;;13.85;39.35
72409;BME280;60402;48.082;11.628;2023-04-10T14:50:31;95526.41;;;13.70;40.28
72409;BME280;60402;48.082;11.628;2023-04-10T14:53:17;95562.59;;;13.79;40.29
72409;BME280;60402;48.082;11.628;2023-04-10T14:56:13;95559.34;;;13.90;40.15